Time;durP1;ratioP1;P1;durP2;ratioP2;P2;SDS_P1;SDS_P2;PMS_P1;PMS_P2;Temp;Humidity;BMP_temperature;BMP_pressure;BME280_temperature;BME280_humidity;BME280_pressure;Samples;Min_cycle;Max_cycle;Signal;HPM_P1;HPM_P2
2022/09/13 00:01:02;;;;;;;0.40;0.20;;;;;;;17.53;91.21;95049.53;5113978;28;20427;-58
2022/09/13 00:03:31;;;;;;;0.73;0.50;;;;;;;16.80;88.44;95047.84;5113912;28;20504;-58
2022/09/13 00:06:06;;;;;;;1.00;0.30;;;;;;;17.37;91.58;95046.53;5113631;28;20431;-58
2022/09/13 00:08:34;;;;;;;1.27;0.50;;;;;;;17.20;85.19;95043.09;5113965;28;20754;-58
2022/09/13 00:11:03;;;;;;;0.50;0.40;;;;;;;16.67;91.16;95046.09;5113467;28;20424;-58
2022/09/13 00:13:33;;;;;;;0.57;0.50;;;;;;;16.36;93.96;95046.19;5113569;28;20420;-57
2022/09/13 00:16:04;;;;;;;0.40;0.30;;;;;;;16.62;95.15;95051.59;5113469;28;20929;-58
2022/09/13 00:18:33;;;;;;;0.40;0.20;;;;;;;17.25;94.74;95054.44;5113432;28;20459;-57
2022/09/13 00:21:07;;;;;;;0.40;0.30;;;;;;;17.49;86.05;95051.25;5113324;28;20423;-58
2022/09/13 00:23:36;;;;;;;0.40;0.20;;;;;;;17.63;83.40;95059.94;5113321;28;20431;-57
2022/09/13 00:26:07;;;;;;;0.50;0.30;;;;;;;17.60;84.94;95057.88;5113496;27;20424;-57
2022/09/13 00:28:37;;;;;;;0.40;0.20;;;;;;;17.41;89.04;95052.81;5113565;28;20432;-57
2022/09/13 00:31:09;;;;;;;0.60;0.50;;;;;;;16.38;89.22;95063.50;5113441;28;20447;-57
2022/09/13 00:33:37;;;;;;;0.40;0.30;;;;;;;15.99;90.31;95002.03;5113218;28;20431;-57
2022/09/13 00:36:07;;;;;;;0.87;0.87;;;;;;;16.04;93.65;95049.25;5113114;28;20422;-57
2022/09/13 00:38:36;;;;;;;1.33;0.50;;;;;;;16.72;100.00;95051.31;5113007;28;20427;-57
2022/09/13 00:41:05;;;;;;;0.40;0.20;;;;;;;17.16;100.00;95040.25;5113223;28;20419;-57
2022/09/13 00:43:48;;;;;;;0.40;0.23;;;;;;;17.33;100.00;95052.88;5113190;28;20442;-57
2022/09/13 00:46:25;;;;;;;0.50;0.43;;;;;;;16.55;89.13;95045.91;5112731;28;20493;-57
2022/09/13 00:48:57;;;;;;;0.60;0.60;;;;;;;16.73;93.65;95042.94;5113222;28;20513;-57
2022/09/13 00:51:26;;;;;;;0.40;0.30;;;;;;;17.11;95.44;95038.53;5112881;28;20426;-58
2022/09/13 00:53:58;;;;;;;0.40;0.30;;;;;;;16.75;93.95;95046.09;5112698;28;20439;-57
2022/09/13 00:56:32;;;;;;;0.40;0.30;;;;;;;16.33;93.08;95044.13;5112729;28;20502;-57
2022/09/13 00:59:06;;;;;;;0.40;0.20;;;;;;;16.37;93.92;95040.50;5113022;28;20810;-57
2022/09/13 01:01:41;;;;;;;0.40;0.30;;;;;;;16.19;91.36;95041.56;5112602;28;20422;-57
2022/09/13 01:04:10;;;;;;;1.00;0.60;;;;;;;16.88;97.96;95045.16;5112502;28;20474;-57
2022/09/13 01:06:41;;;;;;;0.40;0.20;;;;;;;16.96;88.72;95040.91;5112613;28;20433;-57
2022/09/13 01:09:12;;;;;;;0.40;0.30;;;;;;;17.10;86.56;95045.00;5112779;28;20432;-57
2022/09/13 01:11:49;;;;;;;0.43;0.30;;;;;;;17.21;89.03;95042.78;5112780;28;20427;-57
2022/09/13 01:14:20;;;;;;;0.40;0.30;;;;;;;17.39;91.54;95046.22;5112371;28;20434;-57
2022/09/13 01:16:48;;;;;;;0.60;0.30;;;;;;;17.50;97.05;95048.25;5112440;28;20431;-57
2022/09/13 01:19:17;;;;;;;0.40;0.30;;;;;;;17.44;91.84;95048.72;5112314;28;20423;-57
2022/09/13 01:22:19;;;;;;;0.50;0.40;;;;;;;17.36;88.88;95038.81;5112403;28;20419;-56
2022/09/13 01:25:06;;;;;;;0.50;0.40;;;;;;;17.33;85.22;95028.75;5095570;28;20485;-57
2022/09/13 01:27:50;;;;;;;0.47;0.30;;;;;;;16.29;90.85;95054.63;5112323;28;20427;-57
2022/09/13 01:30:21;;;;;;;0.60;0.60;;;;;;;14.90;100.00;95040.06;5112325;28;20435;-56
2022/09/13 01:33:21;;;;;;;0.70;0.57;;;;;;;15.05;100.00;95042.38;5112481;28;20424;-56
2022/09/13 01:36:06;;;;;;;0.40;0.23;;;;;;;15.81;100.00;95040.50;5112538;28;20424;-56
2022/09/13 01:38:53;;;;;;;0.50;0.30;;;;;;;15.13;100.00;95047.00;5112383;28;20794;-56
2022/09/13 01:41:41;;;;;;;2.30;1.23;;;;;;;14.54;100.00;95041.97;5111994;28;20434;-56
2022/09/13 01:44:18;;;;;;;0.40;0.30;;;;;;;14.71;100.00;95031.44;5111962;28;20431;-56
2022/09/13 01:46:55;;;;;;;0.97;0.60;;;;;;;15.64;100.00;95033.19;5112107;28;20427;-56
2022/09/13 01:49:32;;;;;;;0.40;0.23;;;;;;;16.06;100.00;95021.09;5111960;28;20437;-55
2022/09/13 01:52:03;;;;;;;0.50;0.40;;;;;;;16.03;100.00;95015.56;5112047;28;20422;-59
2022/09/13 01:54:38;;;;;;;0.50;0.30;;;;;;;16.04;100.00;95015.25;5112004;28;20435;-56
2022/09/13 01:57:15;;;;;;;0.40;0.30;;;;;;;15.76;100.00;95013.94;5111827;28;20474;-55
2022/09/13 01:59:49;;;;;;;0.63;0.50;;;;;;;15.91;100.00;95016.19;5111883;28;20423;-55
2022/09/13 02:02:24;;;;;;;0.40;0.20;;;;;;;16.20;100.00;95018.28;5111866;28;20429;-55
2022/09/13 02:04:59;;;;;;;2.20;0.30;;;;;;;16.46;100.00;95019.94;5111990;28;20854;-56
2022/09/13 02:07:34;;;;;;;0.40;0.30;;;;;;;16.26;100.00;95001.81;5114320;28;20427;-56
2022/09/13 02:10:09;;;;;;;0.60;0.50;;;;;;;16.37;100.00;95015.63;5116203;28;20955;-56
2022/09/13 02:12:42;;;;;;;0.60;0.50;;;;;;;16.33;100.00;95012.03;5116260;28;20778;-56
2022/09/13 02:15:16;;;;;;;0.53;0.40;;;;;;;16.38;100.00;95018.03;5115814;28;20439;-56
2022/09/13 02:17:52;;;;;;;0.50;0.30;;;;;;;16.27;100.00;95014.06;5116002;28;20431;-56
2022/09/13 02:20:25;;;;;;;0.40;0.30;;;;;;;16.15;100.00;95016.56;5115662;28;20543;-56
2022/09/13 02:22:58;;;;;;;0.50;0.40;;;;;;;16.23;100.00;95018.47;5115948;28;20908;-56
2022/09/13 02:25:30;;;;;;;0.40;0.30;;;;;;;16.41;100.00;95030.78;5115569;28;20475;-56
2022/09/13 02:28:02;;;;;;;0.47;0.30;;;;;;;16.48;97.46;95031.09;5115572;28;20944;-56
2022/09/13 02:30:33;;;;;;;0.50;0.30;;;;;;;15.88;94.49;95030.94;5115693;27;20933;-55
2022/09/13 02:33:07;;;;;;;0.93;0.93;;;;;;;15.24;100.00;95036.88;5115021;28;20924;-56
2022/09/13 02:35:38;;;;;;;0.50;0.40;;;;;;;14.91;100.00;95041.66;5115455;28;20431;-55
2022/09/13 02:38:12;;;;;;;0.40;0.30;;;;;;;15.26;100.00;95042.69;5115741;27;20442;-55
2022/09/13 02:40:46;;;;;;;0.40;0.30;;;;;;;15.72;100.00;95037.00;5115687;28;20434;-55
2022/09/13 02:43:21;;;;;;;0.50;0.47;;;;;;;16.14;100.00;95033.69;5115218;28;20427;-56
2022/09/13 02:45:53;;;;;;;0.40;0.30;;;;;;;15.94;100.00;95034.25;5115130;28;20470;-55
2022/09/13 02:48:33;;;;;;;1.23;0.40;;;;;;;15.20;100.00;95044.69;5115478;28;20424;-56
2022/09/13 02:51:16;;;;;;;0.50;0.40;;;;;;;14.28;100.00;94967.06;5114993;28;20446;-55
2022/09/13 02:53:54;;;;;;;1.27;0.30;;;;;;;14.71;100.00;95039.47;5115085;28;20419;-56
2022/09/13 02:56:30;;;;;;;0.50;0.33;;;;;;;15.03;100.00;95043.78;5114997;28;20466;-55
2022/09/13 02:59:05;;;;;;;0.50;0.30;;;;;;;15.68;100.00;95036.84;5115276;28;20816;-55
2022/09/13 03:01:35;;;;;;;0.50;0.40;;;;;;;15.79;100.00;95038.13;5115158;28;20431;-55
2022/09/13 03:04:06;;;;;;;0.40;0.20;;;;;;;15.72;100.00;95040.47;5114888;28;21083;-55
2022/09/13 03:06:35;;;;;;;0.40;0.30;;;;;;;15.66;100.00;95041.69;5114754;28;20479;-55
2022/09/13 03:09:05;;;;;;;0.40;0.30;;;;;;;15.51;100.00;95043.97;5115063;28;20435;-55
2022/09/13 03:11:47;;;;;;;0.40;0.30;;;;;;;15.77;100.00;95044.88;5114729;28;20427;-55
2022/09/13 03:14:27;;;;;;;0.40;0.20;;;;;;;15.93;100.00;95042.59;5114724;28;20431;-55
2022/09/13 03:17:12;;;;;;;0.40;0.20;;;;;;;15.81;100.00;95043.19;5114858;28;20427;-55
2022/09/13 03:19:58;;;;;;;0.63;0.63;;;;;;;15.23;100.00;94998.69;5114876;28;20823;-55
2022/09/13 03:22:54;;;;;;;0.50;0.50;;;;;;;15.75;100.00;95044.41;5114448;28;20428;-55
2022/09/13 03:25:35;;;;;;;0.40;0.30;;;;;;;15.66;100.00;95044.34;5114870;28;20471;-55
2022/09/13 03:28:12;;;;;;;0.40;0.20;;;;;;;15.64;100.00;95049.22;5114653;28;20423;-55
2022/09/13 03:30:49;;;;;;;0.63;0.57;;;;;;;14.86;100.00;95051.66;5114431;28;20419;-55
2022/09/13 03:33:26;;;;;;;0.80;0.80;;;;;;;14.35;100.00;95057.31;5114672;28;20419;-55
2022/09/13 03:36:03;;;;;;;2.00;0.50;;;;;;;13.84;100.00;95060.97;5114318;27;20463;-55
2022/09/13 03:38:37;;;;;;;0.50;0.47;;;;;;;13.35;100.00;95058.94;5114179;28;20419;-55
2022/09/13 03:41:09;;;;;;;0.60;0.53;;;;;;;12.68;100.00;94969.81;5114175;28;20422;-55
2022/09/13 03:43:44;;;;;;;0.60;0.53;;;;;;;13.43;100.00;95060.13;5114091;28;20435;-55
2022/09/13 03:46:19;;;;;;;0.50;0.30;;;;;;;14.33;100.00;95052.28;5114042;28;21019;-55
2022/09/13 03:48:48;;;;;;;0.50;0.40;;;;;;;14.72;100.00;95059.72;5113944;28;20434;-55
2022/09/13 03:51:18;;;;;;;0.50;0.40;;;;;;;14.56;100.00;95045.94;5113962;28;20419;-55
2022/09/13 03:53:52;;;;;;;0.50;0.43;;;;;;;14.49;100.00;95063.44;5113945;28;20420;-55
2022/09/13 03:56:21;;;;;;;0.40;0.30;;;;;;;15.23;100.00;95067.31;5113844;28;20427;-55
2022/09/13 03:58:50;;;;;;;0.50;0.30;;;;;;;15.25;100.00;95071.25;5114148;28;20416;-55
2022/09/13 04:01:21;;;;;;;0.47;0.30;;;;;;;15.35;100.00;95054.22;5114014;28;20431;-55
2022/09/13 04:03:50;;;;;;;0.40;0.30;;;;;;;15.51;100.00;95071.44;5113697;28;20415;-55
2022/09/13 04:06:25;;;;;;;0.40;0.30;;;;;;;15.57;94.64;95077.47;5113811;28;20483;-55
2022/09/13 04:08:53;;;;;;;0.50;0.40;;;;;;;14.50;100.00;95083.66;5113551;28;20436;-55
2022/09/13 04:11:23;;;;;;;0.77;0.77;;;;;;;13.92;100.00;95094.13;5113881;28;20813;-55
2022/09/13 04:13:51;;;;;;;0.40;0.30;;;;;;;14.01;100.00;95098.47;5113594;28;20424;-55
2022/09/13 04:16:19;;;;;;;0.60;0.50;;;;;;;14.68;100.00;95093.41;5113452;28;20435;-55
2022/09/13 04:18:48;;;;;;;0.60;0.60;;;;;;;14.83;100.00;95098.41;5113752;28;20415;-55
2022/09/13 04:21:17;;;;;;;0.90;0.70;;;;;;;15.38;100.00;95096.31;5113670;28;20928;-55
2022/09/13 04:23:50;;;;;;;0.50;0.40;;;;;;;15.68;100.00;95087.59;5113283;28;20427;-55
2022/09/13 04:26:18;;;;;;;0.40;0.30;;;;;;;14.79;100.00;95094.78;5113537;28;20459;-55
2022/09/13 04:28:46;;;;;;;0.60;0.40;;;;;;;13.92;100.00;95102.91;5113253;27;20436;-55
2022/09/13 04:31:15;;;;;;;0.50;0.43;;;;;;;14.00;100.00;95102.22;5112910;28;20514;-55
2022/09/13 04:33:43;;;;;;;0.60;0.50;;;;;;;14.60;100.00;95092.22;5113354;28;20443;-55
2022/09/13 04:36:11;;;;;;;0.77;0.77;;;;;;;14.38;100.00;95096.72;5113120;28;20430;-55
2022/09/13 04:38:40;;;;;;;0.40;0.40;;;;;;;14.36;100.00;95090.88;5112921;28;20427;-55
2022/09/13 04:41:10;;;;;;;3.70;0.40;;;;;;;14.98;100.00;95083.94;5112927;28;20501;-55
2022/09/13 04:43:38;;;;;;;0.40;0.40;;;;;;;15.32;100.00;95086.88;5113171;28;20428;-55
2022/09/13 04:46:07;;;;;;;0.50;0.30;;;;;;;15.54;100.00;95086.06;5112695;28;20859;-56
2022/09/13 04:48:35;;;;;;;0.50;0.40;;;;;;;15.76;100.00;95078.06;5112891;28;20451;-55
2022/09/13 04:51:04;;;;;;;0.40;0.30;;;;;;;16.03;100.00;95085.88;5112585;28;20432;-55
2022/09/13 04:53:33;;;;;;;0.57;0.40;;;;;;;15.28;100.00;94982.53;5112688;28;20910;-55
2022/09/13 04:56:01;;;;;;;0.40;0.30;;;;;;;15.69;100.00;95083.81;5112991;28;20423;-55
2022/09/13 04:58:31;;;;;;;0.50;0.30;;;;;;;15.83;100.00;95092.56;5112404;28;20475;-55
2022/09/13 05:01:03;;;;;;;0.90;0.30;;;;;;;15.50;100.00;95087.78;5112853;28;20431;-57
2022/09/13 05:03:33;;;;;;;0.43;0.30;;;;;;;15.41;100.00;95089.56;5112850;28;20423;-57
2022/09/13 05:06:05;;;;;;;0.40;0.20;;;;;;;15.72;100.00;95079.75;5112405;28;20924;-57
2022/09/13 05:08:33;;;;;;;0.40;0.30;;;;;;;16.05;99.66;95083.66;5112486;28;20431;-57
2022/09/13 05:11:02;;;;;;;0.60;0.60;;;;;;;16.27;100.00;95082.78;5112339;28;20431;-57
2022/09/13 05:13:32;;;;;;;0.40;0.27;;;;;;;16.61;100.00;95084.81;5112716;28;20917;-57
2022/09/13 05:16:04;;;;;;;0.50;0.30;;;;;;;16.71;100.00;95087.97;5112245;28;20431;-57
2022/09/13 05:18:33;;;;;;;0.50;0.50;;;;;;;16.55;94.77;95086.03;5112284;28;20431;-58
2022/09/13 05:21:03;;;;;;;1.00;0.73;;;;;;;16.08;100.00;95093.75;5112548;28;20427;-58
2022/09/13 05:23:32;;;;;;;0.60;0.43;;;;;;;15.62;100.00;95080.00;5112208;28;20432;-59
2022/09/13 05:26:02;;;;;;;1.03;0.30;;;;;;;15.42;100.00;95093.84;5112551;28;20427;-58
2022/09/13 05:28:34;;;;;;;0.83;0.83;;;;;;;15.38;100.00;95087.53;5112203;28;20435;-59
2022/09/13 05:31:04;;;;;;;0.40;0.30;;;;;;;16.06;100.00;95085.25;5112433;27;20427;-58
2022/09/13 05:33:35;;;;;;;8.43;1.00;;;;;;;15.45;100.00;95090.56;5112409;28;20519;-58
2022/09/13 05:36:04;;;;;;;0.70;0.43;;;;;;;14.88;100.00;95097.50;5112417;28;20419;-59
2022/09/13 05:38:32;;;;;;;9.60;0.77;;;;;;;15.26;100.00;95090.75;5112102;28;20431;-59
2022/09/13 05:41:03;;;;;;;0.57;0.50;;;;;;;15.44;100.00;95087.09;5112402;28;20427;-59
2022/09/13 05:43:34;;;;;;;1.70;1.20;;;;;;;15.34;100.00;95094.56;5116691;28;20500;-59
2022/09/13 05:46:05;;;;;;;0.60;0.43;;;;;;;15.53;100.00;95097.88;5116706;28;20813;-59
2022/09/13 05:48:36;;;;;;;0.40;0.30;;;;;;;16.11;100.00;95093.16;5116057;28;20486;-59
2022/09/13 05:51:05;;;;;;;1.10;1.10;;;;;;;15.86;100.00;95083.13;5115956;28;20538;-61
2022/09/13 05:53:34;;;;;;;0.43;0.30;;;;;;;16.56;100.00;95080.41;5116543;27;20435;-59
2022/09/13 05:56:03;;;;;;;0.80;0.80;;;;;;;16.57;100.00;95084.63;5116232;28;20522;-59
2022/09/13 05:58:34;;;;;;;0.50;0.30;;;;;;;16.93;100.00;95070.97;5115919;28;20471;-59
2022/09/13 06:01:02;;;;;;;0.50;0.33;;;;;;;17.01;100.00;95086.25;5116039;28;20419;-59
2022/09/13 06:03:30;;;;;;;0.40;0.30;;;;;;;17.48;97.44;95077.25;5116312;27;20432;-59
2022/09/13 06:05:59;;;;;;;0.80;0.80;;;;;;;17.26;97.67;95084.69;5116236;28;20423;-58
2022/09/13 06:08:29;;;;;;;1.07;0.97;;;;;;;17.12;99.67;95084.84;5115813;28;20507;-58
2022/09/13 06:10:59;;;;;;;1.13;1.03;;;;;;;17.15;99.88;95086.91;5116124;28;20431;-58
2022/09/13 06:13:28;;;;;;;2.40;0.93;;;;;;;17.25;97.57;95067.84;5115972;28;21032;-58
2022/09/13 06:16:00;;;;;;;0.57;0.40;;;;;;;18.36;89.81;95075.56;5115898;28;20443;-57
2022/09/13 06:18:28;;;;;;;0.50;0.50;;;;;;;19.64;84.23;95070.38;5115727;28;20531;-57
2022/09/13 06:21:02;;;;;;;0.40;0.30;;;;;;;19.98;75.39;95064.63;5115793;27;20415;-57
2022/09/13 06:23:31;;;;;;;0.87;0.67;;;;;;;20.01;72.08;95073.94;5115513;27;20423;-57
2022/09/13 06:26:04;;;;;;;0.60;0.40;;;;;;;20.49;66.98;95071.28;5115729;27;20424;-57
2022/09/13 06:28:32;;;;;;;0.40;0.30;;;;;;;19.46;69.64;95018.69;5115566;28;20470;-58
2022/09/13 06:31:07;;;;;;;0.60;0.50;;;;;;;19.42;70.55;95073.44;5115625;28;20425;-57
2022/09/13 06:33:38;;;;;;;0.60;0.40;;;;;;;19.69;70.70;95075.53;5115197;28;20431;-57
2022/09/13 06:36:08;;;;;;;0.50;0.40;;;;;;;19.85;70.66;95073.00;5115396;28;20427;-57
2022/09/13 06:38:36;;;;;;;0.60;0.60;;;;;;;20.37;66.52;95070.50;5115142;28;20424;-58
2022/09/13 06:41:06;;;;;;;0.73;0.73;;;;;;;20.58;63.26;95071.19;5114886;28;20443;-56
2022/09/13 06:43:35;;;;;;;0.40;0.30;;;;;;;21.09;61.36;95070.47;5115220;28;20427;-56
2022/09/13 06:46:08;;;;;;;0.63;0.60;;;;;;;20.99;60.41;95084.38;5114948;28;20933;-55
2022/09/13 06:48:38;;;;;;;0.60;0.57;;;;;;;21.55;57.37;95079.84;5114795;28;20988;-55
2022/09/13 06:51:09;;;;;;;0.63;0.47;;;;;;;22.13;55.93;95072.91;5114713;28;20423;-55
2022/09/13 06:53:38;;;;;;;0.93;0.60;;;;;;;21.55;54.86;95079.84;5114473;28;20427;-55
2022/09/13 06:56:08;;;;;;;0.50;0.50;;;;;;;22.45;54.18;95079.88;5114640;28;20428;-55
2022/09/13 06:58:38;;;;;;;0.50;0.30;;;;;;;22.58;51.81;95078.66;5114449;28;20489;-55
2022/09/13 07:01:10;;;;;;;0.53;0.53;;;;;;;22.55;53.19;95076.66;5114478;28;20426;-56
2022/09/13 07:03:40;;;;;;;0.50;0.30;;;;;;;23.44;49.58;95065.88;5114629;28;20434;-56
2022/09/13 07:06:10;;;;;;;0.67;0.47;;;;;;;22.93;50.95;95067.88;5114933;27;20424;-56
2022/09/13 07:08:39;;;;;;;0.60;0.50;;;;;;;22.62;49.56;95074.13;5114723;28;20475;-56
2022/09/13 07:11:08;;;;;;;0.60;0.40;;;;;;;23.20;48.07;95066.13;5114434;28;20427;-56
2022/09/13 07:13:37;;;;;;;0.60;0.60;;;;;;;23.60;46.74;95065.81;5114503;28;20435;-56
2022/09/13 07:16:08;;;;;;;0.80;0.80;;;;;;;24.35;46.73;95061.38;5113859;28;20435;-56
2022/09/13 07:18:38;;;;;;;0.70;0.70;;;;;;;23.79;45.19;95071.97;5114474;28;20419;-56
2022/09/13 07:21:08;;;;;;;0.77;0.60;;;;;;;24.33;43.81;95065.59;5114436;28;20435;-55
2022/09/13 07:23:38;;;;;;;0.73;0.60;;;;;;;24.78;42.41;95007.84;5114556;28;20423;-55
2022/09/13 07:26:07;;;;;;;0.93;0.80;;;;;;;24.62;42.80;95064.91;5114659;28;20772;-56
2022/09/13 07:28:37;;;;;;;0.60;0.57;;;;;;;24.66;43.33;95067.66;5114302;28;20980;-56
2022/09/13 07:31:10;;;;;;;1.33;1.23;;;;;;;23.75;43.57;95071.16;5114582;28;20436;-56
2022/09/13 07:33:40;;;;;;;0.60;0.50;;;;;;;24.31;43.18;95062.47;5114662;27;20489;-55
2022/09/13 07:36:10;;;;;;;0.80;0.50;;;;;;;24.51;42.45;95010.56;5114300;28;20428;-55
2022/09/13 07:38:40;;;;;;;0.60;0.60;;;;;;;24.28;42.87;95057.78;5114564;28;20802;-56
2022/09/13 07:41:12;;;;;;;0.60;0.50;;;;;;;24.14;42.61;95011.50;5114391;28;20440;-56
2022/09/13 07:43:40;;;;;;;0.90;0.87;;;;;;;24.82;41.57;95060.97;5114562;28;20432;-56
2022/09/13 07:46:12;;;;;;;0.70;0.50;;;;;;;24.62;41.75;95048.63;5113948;28;20435;-56
2022/09/13 07:48:42;;;;;;;0.50;0.37;;;;;;;26.00;41.20;95059.34;5113828;28;20559;-55
2022/09/13 07:51:12;;;;;;;1.60;1.50;;;;;;;25.84;38.78;95058.78;5113971;28;20462;-55
2022/09/13 07:53:41;;;;;;;0.70;0.63;;;;;;;27.35;37.44;95042.13;5114283;28;20978;-55
2022/09/13 07:56:12;;;;;;;0.40;0.37;;;;;;;28.29;35.06;95043.56;5113913;28;20427;-55
2022/09/13 07:58:42;;;;;;;0.83;0.77;;;;;;;27.51;34.94;95040.66;5113928;28;20437;-55
2022/09/13 08:01:14;;;;;;;0.70;0.60;;;;;;;26.88;34.99;95051.19;5113662;28;20946;-55
2022/09/13 08:03:43;;;;;;;0.57;0.50;;;;;;;26.66;35.74;95039.38;5113131;28;20446;-55
2022/09/13 08:06:12;;;;;;;3.90;0.80;;;;;;;27.12;35.89;95050.56;5113395;28;20436;-55
2022/09/13 08:08:40;;;;;;;0.60;0.60;;;;;;;26.70;35.39;95044.81;5113847;28;20857;-55
2022/09/13 08:11:08;;;;;;;0.43;0.40;;;;;;;27.38;34.20;95031.22;5113612;28;20488;-55
2022/09/13 08:13:36;;;;;;;0.90;0.90;;;;;;;26.51;35.77;95009.75;5113711;28;20444;-55
2022/09/13 08:16:06;;;;;;;0.50;0.40;;;;;;;28.21;34.26;95040.06;5113742;28;20428;-54
2022/09/13 08:18:36;;;;;;;0.50;0.40;;;;;;;27.88;32.39;95026.72;5113337;28;20429;-54
2022/09/13 08:21:05;;;;;;;0.40;0.30;;;;;;;28.42;34.04;95028.38;5113273;28;20923;-54
2022/09/13 08:23:33;;;;;;;0.40;0.40;;;;;;;29.57;31.62;95023.09;5113128;28;20434;-53
2022/09/13 08:26:02;;;;;;;0.40;0.30;;;;;;;30.28;28.82;95019.97;5113274;28;20429;-53
2022/09/13 08:28:31;;;;;;;0.40;0.30;;;;;;;30.40;28.72;95008.56;5113191;28;20468;-54
2022/09/13 08:31:04;;;;;;;0.60;0.60;;;;;;;29.83;31.53;95017.13;5113567;28;20432;-54
2022/09/13 08:33:33;;;;;;;0.60;0.60;;;;;;;29.48;30.57;95009.09;5113042;28;21029;-54
2022/09/13 08:36:05;;;;;;;0.57;0.47;;;;;;;29.99;29.91;95005.72;5113014;28;20434;-54
2022/09/13 08:38:33;;;;;;;1.17;1.17;;;;;;;30.01;29.49;95006.88;5113025;28;20429;-53
2022/09/13 08:41:05;;;;;;;0.50;0.50;;;;;;;30.02;29.31;94955.72;5112954;28;20441;-53
2022/09/13 08:43:42;;;;;;;0.70;0.70;;;;;;;30.61;28.50;95006.41;5113173;28;20462;-54
2022/09/13 08:46:21;;;;;;;0.83;0.40;;;;;;;31.17;29.52;94987.91;5113309;28;20423;-53
2022/09/13 08:48:52;;;;;;;0.60;0.40;;;;;;;31.94;27.12;94997.88;5112952;28;20538;-53
2022/09/13 08:51:31;;;;;;;0.60;0.40;;;;;;;31.04;26.84;95001.34;5113150;28;20439;-53
2022/09/13 08:54:01;;;;;;;0.90;0.63;;;;;;;30.67;28.14;94991.13;5113082;28;20426;-53
2022/09/13 08:56:38;;;;;;;0.60;0.60;;;;;;;30.77;27.87;94992.97;5112439;28;20448;-53
2022/09/13 08:59:25;;;;;;;0.70;0.70;;;;;;;30.31;28.36;94991.81;5111597;28;20459;-53
2022/09/13 09:02:01;;;;;;;1.77;0.83;;;;;;;30.06;28.33;94984.56;5112906;28;20814;-53
2022/09/13 09:04:41;;;;;;;0.60;0.53;;;;;;;31.10;28.00;94983.28;5112856;28;20490;-53
2022/09/13 09:07:17;;;;;;;0.60;0.60;;;;;;;31.00;28.53;94986.13;5112473;28;20532;-53
2022/09/13 09:09:51;;;;;;;0.57;0.57;;;;;;;31.24;26.03;94957.69;5112403;28;20468;-54
2022/09/13 09:12:29;;;;;;;0.43;0.40;;;;;;;31.65;25.80;94961.09;5112479;28;20437;-54
2022/09/13 09:15:03;;;;;;;0.40;0.30;;;;;;;30.36;27.74;94983.97;5112203;28;20430;-54
2022/09/13 09:17:40;;;;;;;0.73;0.73;;;;;;;29.38;27.45;94982.59;5112125;28;20432;-54
2022/09/13 09:20:21;;;;;;;1.17;0.70;;;;;;;30.40;26.81;94983.97;5112688;28;20460;-54
2022/09/13 09:22:53;;;;;;;0.47;0.40;;;;;;;29.93;27.28;94971.81;5112309;28;20437;-54
2022/09/13 09:25:24;;;;;;;0.40;0.40;;;;;;;31.07;26.77;94973.13;5112387;28;20441;-58
2022/09/13 09:27:53;;;;;;;0.40;0.40;;;;;;;31.29;26.65;94968.97;5112120;28;20943;-54
2022/09/13 09:30:22;;;;;;;0.40;0.37;;;;;;;31.68;25.05;94959.47;5112180;28;20556;-54
2022/09/13 09:33:09;;;;;;;0.63;0.63;;;;;;;31.25;26.03;94951.03;5112599;28;20434;-53
2022/09/13 09:35:51;;;;;;;0.80;0.50;;;;;;;30.41;26.60;94947.22;5112192;28;20425;-54
2022/09/13 09:38:32;;;;;;;0.53;0.40;;;;;;;31.80;24.35;94958.94;5112183;28;20437;-54
2022/09/13 09:41:05;;;;;;;0.63;0.63;;;;;;;31.98;23.73;94946.53;5112384;28;20440;-54
2022/09/13 09:43:38;;;;;;;0.50;0.43;;;;;;;31.73;24.74;94929.66;5112402;28;20513;-54
2022/09/13 09:46:11;;;;;;;0.43;0.37;;;;;;;31.59;24.69;94953.75;5112033;28;20435;-54
2022/09/13 09:48:46;;;;;;;0.30;0.30;;;;;;;32.37;25.15;94945.13;5112316;28;20480;-54
2022/09/13 09:51:17;;;;;;;0.30;0.30;;;;;;;31.58;23.79;94913.81;5112069;28;20437;-53
2022/09/13 09:53:50;;;;;;;0.40;0.40;;;;;;;31.85;23.20;94942.78;5112010;28;20427;-53
2022/09/13 09:56:23;;;;;;;0.50;0.40;;;;;;;32.33;22.82;94953.44;5111691;28;20435;-53
2022/09/13 09:58:53;;;;;;;0.70;0.30;;;;;;;32.74;21.42;94955.84;5112285;28;20457;-53
2022/09/13 10:01:25;;;;;;;0.50;0.40;;;;;;;32.83;22.30;94952.56;5111912;28;20426;-53
2022/09/13 10:04:03;;;;;;;0.40;0.30;;;;;;;33.23;22.97;94954.94;5112199;28;20485;-53
2022/09/13 10:06:32;;;;;;;0.60;0.60;;;;;;;33.14;20.71;94893.53;5111937;28;20430;-53
2022/09/13 10:09:05;;;;;;;0.40;0.30;;;;;;;34.17;20.92;94936.81;5111826;28;20467;-54
2022/09/13 10:11:49;;;;;;;0.40;0.30;;;;;;;33.74;20.24;94934.25;5111921;28;20435;-54
2022/09/13 10:14:36;;;;;;;0.50;0.37;;;;;;;34.35;19.78;94933.63;5111843;28;20438;-53
2022/09/13 10:17:16;;;;;;;0.70;0.67;;;;;;;34.41;20.41;94934.63;5111854;28;20419;-53
2022/09/13 10:19:58;;;;;;;0.40;0.37;;;;;;;33.17;21.52;94922.88;5111889;28;20197;-54
2022/09/13 10:22:26;;;;;;;0.47;0.30;;;;;;;33.88;20.75;94925.66;5111640;28;20525;-54
2022/09/13 10:25:13;;;;;;;0.50;0.43;;;;;;;33.80;18.75;94921.53;5111758;28;20431;-54
2022/09/13 10:27:48;;;;;;;0.40;0.30;;;;;;;34.16;20.12;94926.22;5113006;28;20576;-57
2022/09/13 10:30:32;;;;;;;0.40;0.30;;;;;;;34.37;18.97;94923.72;5115352;28;20495;-54
2022/09/13 10:33:02;;;;;;;0.37;0.33;;;;;;;33.28;19.55;94928.16;5115329;28;20207;-55
2022/09/13 10:35:30;;;;;;;0.70;0.70;;;;;;;32.35;19.79;94936.53;5115181;28;20431;-54
2022/09/13 10:37:59;;;;;;;0.70;0.70;;;;;;;33.43;18.90;94910.97;5115161;28;20674;-55
2022/09/13 10:40:32;;;;;;;0.40;0.40;;;;;;;32.91;18.56;94932.03;5115284;28;20450;-54
2022/09/13 10:43:05;;;;;;;0.40;0.30;;;;;;;33.85;18.47;94926.53;5115422;28;20268;-55
2022/09/13 10:45:34;;;;;;;0.40;0.40;;;;;;;32.47;19.07;94935.94;5115109;28;20463;-55
2022/09/13 10:48:09;;;;;;;0.50;0.40;;;;;;;33.26;19.04;94928.59;5115561;28;20198;-54
2022/09/13 10:50:38;;;;;;;0.67;0.67;;;;;;;32.03;19.46;94917.84;5114876;28;20490;-54
2022/09/13 10:53:31;;;;;;;0.40;0.30;;;;;;;33.34;18.11;94879.78;5115105;28;20435;-53
2022/09/13 10:56:02;;;;;;;0.53;0.53;;;;;;;33.39;19.39;94934.22;5115371;28;20194;-54
2022/09/13 10:58:31;;;;;;;0.53;0.53;;;;;;;33.76;18.95;94898.84;5114781;28;20238;-54
2022/09/13 11:01:39;;;;;;;0.50;0.40;;;;;;;34.01;17.56;94916.72;5115279;28;20504;-54
2022/09/13 11:04:38;;;;;;;0.30;0.27;;;;;;;34.29;17.53;94913.31;5115225;28;20590;-55
2022/09/13 11:07:34;;;;;;;0.37;0.33;;;;;;;35.24;17.29;94910.03;5114643;28;20202;-55
2022/09/13 11:10:11;;;;;;;0.40;0.40;;;;;;;35.33;17.98;94899.13;5114532;28;20209;-55
2022/09/13 11:12:46;;;;;;;0.40;0.40;;;;;;;35.46;18.86;94892.44;5114777;28;20193;-55
2022/09/13 11:15:26;;;;;;;2.57;0.70;;;;;;;35.67;17.92;94894.53;5114472;28;20186;-55
2022/09/13 11:18:20;;;;;;;0.30;0.30;;;;;;;34.44;18.77;94890.50;5114366;28;20213;-54
2022/09/13 11:20:58;;;;;;;0.50;0.40;;;;;;;34.51;17.90;94891.53;5114710;27;20555;-55
2022/09/13 11:23:54;;;;;;;0.90;0.63;;;;;;;32.64;19.96;94885.47;5114331;27;20187;-55
2022/09/13 11:26:40;;;;;;;0.97;0.53;;;;;;;33.71;19.51;94882.88;5114800;28;20202;-55
2022/09/13 11:29:26;;;;;;;0.30;0.20;;;;;;;33.79;19.69;94872.47;5114452;28;20198;-55
2022/09/13 11:32:05;;;;;;;1.03;1.03;;;;;;;33.00;19.97;94874.56;5114377;28;20193;-55
2022/09/13 11:34:50;;;;;;;1.60;0.40;;;;;;;33.31;20.12;94872.38;5114541;27;20191;-55
2022/09/13 11:37:45;;;;;;;0.40;0.40;;;;;;;32.83;20.72;94864.72;5114248;28;20214;-55
2022/09/13 11:40:36;;;;;;;0.30;0.30;;;;;;;35.04;19.95;94861.38;5113025;28;20574;-55
2022/09/13 11:43:22;;;;;;;0.43;0.43;;;;;;;34.14;20.24;94846.88;5114299;28;20571;-54
2022/09/13 11:46:02;;;;;;;0.90;0.50;;;;;;;34.43;19.84;94852.44;5113923;28;20952;-54
2022/09/13 11:48:45;;;;;;;0.40;0.30;;;;;;;34.12;20.66;94857.56;5113897;28;20440;-54
2022/09/13 11:51:25;;;;;;;0.30;0.20;;;;;;;34.29;19.81;94867.31;5114283;28;20217;-54
2022/09/13 11:54:08;;;;;;;0.47;0.40;;;;;;;34.14;19.83;94857.88;5114332;28;20190;-54
2022/09/13 11:56:41;;;;;;;0.50;0.50;;;;;;;33.50;20.06;94726.69;5113917;27;20614;-59
2022/09/13 11:59:19;;;;;;;0.70;0.60;;;;;;;33.63;20.77;94851.25;5113856;28;20198;-59